createdAt,value
2018-03-23T00:01:56.119Z,30.67
2018-03-23T00:04:24.530Z,30.53
2018-03-23T00:06:52.844Z,31.43
2018-03-23T00:09:21.180Z,31.23
2018-03-23T00:11:49.489Z,31.90
2018-03-23T00:14:17.861Z,32.17
2018-03-23T00:16:46.180Z,30.33
2018-03-23T00:19:14.517Z,31.53
2018-03-23T00:21:42.864Z,30.60
2018-03-23T00:24:11.220Z,32.80
2018-03-23T00:26:39.585Z,34.23
2018-03-23T00:29:07.927Z,32.17
2018-03-23T00:31:36.297Z,32.77
2018-03-23T00:34:04.851Z,36.23
2018-03-23T00:36:33.185Z,32.73
2018-03-23T00:39:01.526Z,30.97
2018-03-23T00:41:30.073Z,32.43
2018-03-23T00:43:58.681Z,32.53
2018-03-23T00:46:27.061Z,32.53
2018-03-23T00:48:55.460Z,32.70
2018-03-23T00:51:23.850Z,32.70
2018-03-23T00:53:52.229Z,30.63
2018-03-23T00:56:20.557Z,32.10
2018-03-23T00:58:48.899Z,30.20
2018-03-23T01:01:17.265Z,31.83
2018-03-23T01:03:45.613Z,31.17
2018-03-23T01:06:13.960Z,31.77
2018-03-23T01:08:42.279Z,32.93
2018-03-23T01:11:10.689Z,32.60
2018-03-23T01:13:39.027Z,31.00
2018-03-23T01:16:07.382Z,32.70
2018-03-23T01:18:35.720Z,32.73
2018-03-23T01:21:04.056Z,32.80
2018-03-23T01:23:32.388Z,33.33
2018-03-23T01:26:00.710Z,32.83
2018-03-23T01:28:29.066Z,33.50
2018-03-23T01:30:57.422Z,32.87
2018-03-23T01:33:25.762Z,33.30
2018-03-23T01:35:54.094Z,33.30
2018-03-23T01:38:22.371Z,32.63
2018-03-23T01:40:50.684Z,31.63
2018-03-23T01:43:19.031Z,31.80
2018-03-23T01:45:47.562Z,34.67
2018-03-23T01:48:15.915Z,33.37
2018-03-23T01:50:44.203Z,34.77
2018-03-23T01:53:24.271Z,33.33
2018-03-23T01:55:52.593Z,33.50
2018-03-23T01:58:20.878Z,34.77
2018-03-23T02:00:49.272Z,33.63
2018-03-23T02:03:17.612Z,33.10
2018-03-23T02:05:45.894Z,33.40
2018-03-23T02:08:14.250Z,34.03
2018-03-23T02:10:42.543Z,34.10
2018-03-23T02:13:11.300Z,35.40
2018-03-23T02:15:39.557Z,35.03
2018-03-23T02:18:07.879Z,34.63
2018-03-23T02:20:36.476Z,34.37
2018-03-23T02:23:04.818Z,33.97
2018-03-23T02:25:33.265Z,32.63
2018-03-23T02:28:01.614Z,32.53
2018-03-23T02:30:29.918Z,33.50
2018-03-23T02:32:58.236Z,34.17
2018-03-23T02:35:26.583Z,35.63
2018-03-23T02:37:54.922Z,33.53
2018-03-23T02:40:23.279Z,32.60
2018-03-23T02:42:51.676Z,31.77
2018-03-23T02:45:20.011Z,33.53
2018-03-23T02:47:48.461Z,36.87
2018-03-23T02:50:16.773Z,35.07
2018-03-23T02:52:45.099Z,35.57
2018-03-23T02:55:13.492Z,35.47
2018-03-23T02:57:41.817Z,33.63
2018-03-23T03:00:10.149Z,35.43
2018-03-23T03:02:38.468Z,34.20
2018-03-23T03:05:06.798Z,33.63
2018-03-23T03:07:35.120Z,34.97
2018-03-23T03:10:03.588Z,33.93
2018-03-23T03:12:31.907Z,34.87
2018-03-23T03:15:00.342Z,35.30
2018-03-23T03:17:28.689Z,35.20
2018-03-23T03:19:57.116Z,37.17
2018-03-23T03:22:25.815Z,36.70
2018-03-23T03:24:54.251Z,35.97
2018-03-23T03:27:22.640Z,36.27
2018-03-23T03:29:51.012Z,36.60
2018-03-23T03:32:19.362Z,38.67
2018-03-23T03:34:47.725Z,36.77
2018-03-23T03:37:16.073Z,36.50
2018-03-23T03:39:44.891Z,38.47
2018-03-23T03:42:13.624Z,39.03
2018-03-23T03:44:41.968Z,36.77
2018-03-23T03:47:10.348Z,37.33
2018-03-23T03:49:38.716Z,34.07
2018-03-23T03:52:07.185Z,36.23
2018-03-23T03:54:35.532Z,37.53
2018-03-23T03:57:03.931Z,36.50
2018-03-23T03:59:32.276Z,36.43
2018-03-23T04:02:00.600Z,34.23
2018-03-23T04:04:29.004Z,37.57
2018-03-23T04:06:57.414Z,35.07
2018-03-23T04:09:25.736Z,37.13
2018-03-23T04:11:54.087Z,37.97
2018-03-23T04:14:22.398Z,34.50
2018-03-23T04:16:50.749Z,36.07
2018-03-23T04:19:19.095Z,35.10
2018-03-23T04:21:49.902Z,35.13
2018-03-23T04:24:18.214Z,36.63
2018-03-23T04:26:46.589Z,36.50
2018-03-23T04:29:15.016Z,38.07
2018-03-23T04:31:43.356Z,34.83
2018-03-23T04:34:11.712Z,34.30
2018-03-23T04:36:40.928Z,33.27
2018-03-23T04:39:09.256Z,32.70
2018-03-23T04:41:37.649Z,33.20
2018-03-23T04:44:05.957Z,35.10
2018-03-23T04:46:34.357Z,33.00
2018-03-23T04:49:02.701Z,33.30
2018-03-23T04:51:31.094Z,34.00
2018-03-23T04:53:59.465Z,31.40
2018-03-23T04:56:27.814Z,29.70
2018-03-23T04:58:56.145Z,30.47
2018-03-23T05:01:24.488Z,31.30
2018-03-23T05:03:52.819Z,29.77
2018-03-23T05:06:21.351Z,32.33
2018-03-23T05:08:49.774Z,28.23
2018-03-23T05:11:18.130Z,30.73
2018-03-23T05:13:46.518Z,30.50
2018-03-23T05:16:14.949Z,29.47
2018-03-23T05:18:43.329Z,29.67
2018-03-23T05:21:11.792Z,30.87
2018-03-23T05:23:40.125Z,31.83
2018-03-23T05:26:08.442Z,29.60
2018-03-23T05:28:36.816Z,28.70
2018-03-23T05:31:05.157Z,27.53
2018-03-23T05:33:33.477Z,30.73
2018-03-23T05:36:01.863Z,29.30
2018-03-23T05:38:30.198Z,27.57
2018-03-23T05:40:58.517Z,21.63
2018-03-23T05:43:27.115Z,22.83
2018-03-23T05:45:55.423Z,23.83
2018-03-23T05:48:23.787Z,24.20
2018-03-23T05:50:52.895Z,22.03
2018-03-23T05:53:21.626Z,22.43
2018-03-23T05:55:49.958Z,23.97
2018-03-23T05:58:18.375Z,24.70
2018-03-23T06:00:46.696Z,26.63
2018-03-23T06:03:15.114Z,23.07
2018-03-23T06:05:43.450Z,23.03
2018-03-23T06:08:11.767Z,21.33
2018-03-23T06:10:40.370Z,25.87
2018-03-23T06:13:08.700Z,24.30
2018-03-23T06:15:37.085Z,23.83
2018-03-23T06:18:05.468Z,26.23
2018-03-23T06:20:33.862Z,25.83
2018-03-23T06:23:02.187Z,23.23
2018-03-23T06:25:30.606Z,23.80
2018-03-23T06:27:58.942Z,26.07
2018-03-23T06:30:27.266Z,25.77
2018-03-23T06:32:55.598Z,24.63
2018-03-23T06:35:23.971Z,27.20
2018-03-23T06:37:52.286Z,25.83
2018-03-23T06:40:20.656Z,27.67
2018-03-23T06:42:49.241Z,28.00
2018-03-23T06:45:17.581Z,26.77
2018-03-23T06:47:45.891Z,28.83
2018-03-23T06:50:14.369Z,28.10
2018-03-23T06:52:42.682Z,27.53
2018-03-23T06:55:11.041Z,26.13
2018-03-23T06:57:39.382Z,29.13
2018-03-23T07:00:07.696Z,23.77
2018-03-23T07:02:36.056Z,26.97
2018-03-23T07:05:04.385Z,25.33
2018-03-23T07:07:32.743Z,26.37
2018-03-23T07:10:01.064Z,24.73
2018-03-23T07:12:29.474Z,25.77
2018-03-23T07:14:57.805Z,24.33
2018-03-23T07:17:26.155Z,24.60
2018-03-23T07:19:54.495Z,24.07
2018-03-23T07:22:23.841Z,25.43
2018-03-23T07:24:52.163Z,24.23
2018-03-23T07:27:20.538Z,24.47
2018-03-23T07:29:48.838Z,22.47
2018-03-23T07:32:17.189Z,24.70
2018-03-23T07:34:45.552Z,31.37
2018-03-23T07:37:13.901Z,24.87
2018-03-23T07:39:42.223Z,27.00
2018-03-23T07:42:10.712Z,29.03
2018-03-23T08:04:55.461Z,19.33
2018-03-23T08:07:23.925Z,17.13
2018-03-23T08:09:52.358Z,17.37
2018-03-23T08:12:20.765Z,18.97
2018-03-23T08:14:49.153Z,17.20
2018-03-23T08:17:17.535Z,18.70
2018-03-23T08:19:45.892Z,17.00
2018-03-23T08:22:14.232Z,16.67
2018-03-23T08:24:42.698Z,18.10
2018-03-23T08:27:11.230Z,16.27
2018-03-23T08:29:39.660Z,16.90
2018-03-23T08:32:08.098Z,18.43
2018-03-23T08:34:36.432Z,18.00
2018-03-23T08:37:04.785Z,16.37
2018-03-23T08:39:33.218Z,15.30
2018-03-23T08:42:01.580Z,16.07
2018-03-23T08:44:29.977Z,16.93
2018-03-23T08:46:58.294Z,15.70
2018-03-23T08:49:26.616Z,12.40
2018-03-23T08:51:55.797Z,13.63
2018-03-23T08:54:24.137Z,13.57
2018-03-23T08:56:52.573Z,12.77
2018-03-23T08:59:20.914Z,12.37
2018-03-23T09:01:49.267Z,13.67
2018-03-23T09:04:17.855Z,11.83
2018-03-23T09:06:46.245Z,12.77
2018-03-23T09:09:14.582Z,11.80
2018-03-23T09:11:42.931Z,13.67
2018-03-23T09:14:11.542Z,12.87
2018-03-23T09:16:40.029Z,11.10
2018-03-23T09:19:08.325Z,11.47
2018-03-23T09:21:36.664Z,11.70
2018-03-23T09:24:04.983Z,12.83
2018-03-23T09:26:33.390Z,10.23
2018-03-23T09:29:01.766Z,11.00
2018-03-23T09:31:30.180Z,11.17
2018-03-23T09:33:58.718Z,11.87
2018-03-23T09:36:27.053Z,12.30
2018-03-23T09:38:55.373Z,12.17
2018-03-23T09:41:23.721Z,12.67
2018-03-23T09:43:52.038Z,11.30
2018-03-23T09:46:20.363Z,11.20
2018-03-23T09:48:48.755Z,12.40
2018-03-23T09:51:18.024Z,11.87
2018-03-23T09:53:46.480Z,11.97
2018-03-23T09:56:14.808Z,12.70
2018-03-23T09:58:43.121Z,11.10
2018-03-23T10:01:11.472Z,11.23
2018-03-23T10:03:39.781Z,12.27
2018-03-23T10:06:08.127Z,12.40
2018-03-23T10:08:36.481Z,12.37
2018-03-23T10:11:04.835Z,11.87
2018-03-23T10:13:33.286Z,11.20
2018-03-23T10:16:01.597Z,11.10
2018-03-23T10:18:30.040Z,11.63
2018-03-23T10:20:58.587Z,10.77
2018-03-23T10:23:26.943Z,10.47
2018-03-23T10:25:55.263Z,9.77
2018-03-23T10:28:23.611Z,10.13
2018-03-23T10:30:51.982Z,9.57
2018-03-23T10:33:20.384Z,10.27
2018-03-23T10:35:48.697Z,9.03
2018-03-23T10:38:17.092Z,9.07
2018-03-23T10:40:45.469Z,11.13
2018-03-23T10:43:13.806Z,10.97
2018-03-23T10:45:42.134Z,10.17
2018-03-23T10:48:10.547Z,9.80
2018-03-23T10:50:38.863Z,9.93
2018-03-23T10:53:07.192Z,11.63
2018-03-23T10:55:35.504Z,9.30
2018-03-23T10:58:05.556Z,9.33
2018-03-23T11:00:39.429Z,9.97
2018-03-23T11:03:07.755Z,10.03
2018-03-23T11:05:36.057Z,9.07
2018-03-23T11:08:04.407Z,10.33
2018-03-23T11:10:32.731Z,9.50
2018-03-23T11:13:01.046Z,10.23
2018-03-23T11:15:29.378Z,12.17
2018-03-23T11:17:57.870Z,10.03
2018-03-23T11:20:26.294Z,8.73
2018-03-23T11:22:54.630Z,8.43
2018-03-23T11:25:22.944Z,8.93
2018-03-23T11:27:51.369Z,8.77
2018-03-23T11:30:19.768Z,10.27
2018-03-23T11:32:48.033Z,9.73
2018-03-23T11:35:16.397Z,9.43
2018-03-23T11:37:44.694Z,9.30
2018-03-23T11:40:13.075Z,8.57
2018-03-23T11:42:41.378Z,9.57
2018-03-23T11:45:09.815Z,10.03
2018-03-23T11:47:38.129Z,8.93
2018-03-23T11:50:06.462Z,9.57
2018-03-23T11:52:34.768Z,9.30
2018-03-23T11:55:03.309Z,9.40
2018-03-23T11:57:31.622Z,10.33
2018-03-23T12:00:00.041Z,9.10
2018-03-23T12:02:28.359Z,9.07
2018-03-23T12:04:56.694Z,9.40
2018-03-23T12:07:25.078Z,10.20
2018-03-23T12:09:53.567Z,9.20
2018-03-23T12:12:21.910Z,10.17
2018-03-23T12:14:50.220Z,9.73
2018-03-23T12:17:18.601Z,9.70
2018-03-23T12:19:53.849Z,10.17
2018-03-23T12:22:22.200Z,9.53
2018-03-23T12:24:50.511Z,8.13
2018-03-23T12:27:18.895Z,9.53
2018-03-23T12:29:47.211Z,10.30
2018-03-23T12:32:15.573Z,8.50
2018-03-23T12:34:43.917Z,8.60
2018-03-23T12:37:12.274Z,8.97
2018-03-23T12:39:40.579Z,8.23
2018-03-23T12:42:08.966Z,9.80
2018-03-23T12:44:37.369Z,9.23
2018-03-23T12:47:05.692Z,9.30
2018-03-23T12:49:34.321Z,9.60
2018-03-23T12:52:02.758Z,9.63
2018-03-23T12:54:31.150Z,9.47
2018-03-23T12:56:59.580Z,9.80
2018-03-23T12:59:27.888Z,9.33
2018-03-23T13:01:56.231Z,8.60
2018-03-23T13:04:24.572Z,9.93
2018-03-23T13:06:52.925Z,9.57
2018-03-23T13:09:21.249Z,8.70
2018-03-23T13:11:49.589Z,9.10
2018-03-23T13:14:17.919Z,9.03
2018-03-23T13:16:46.309Z,9.47
2018-03-23T13:19:14.655Z,9.77
2018-03-23T13:21:42.969Z,8.97
2018-03-23T13:24:11.290Z,9.90
2018-03-23T13:26:39.594Z,8.83
2018-03-23T13:29:07.923Z,11.00
2018-03-23T13:31:36.521Z,9.30
2018-03-23T13:34:04.871Z,10.13
2018-03-23T13:36:33.217Z,10.60
2018-03-23T13:39:01.581Z,10.27
2018-03-23T13:41:30.992Z,11.90
2018-03-23T13:43:59.755Z,11.17
2018-03-23T13:46:28.073Z,13.67
2018-03-23T13:48:56.404Z,11.30
2018-03-23T13:51:24.766Z,12.37
2018-03-23T13:53:53.108Z,13.23
2018-03-23T13:56:21.440Z,11.03
2018-03-23T13:58:55.469Z,12.27
2018-03-23T14:01:29.335Z,12.37
2018-03-23T14:03:57.688Z,11.27
2018-03-23T14:06:26.005Z,11.67
2018-03-23T14:08:54.332Z,11.43
2018-03-23T14:11:22.664Z,10.27
2018-03-23T14:13:50.980Z,10.53
2018-03-23T14:16:19.346Z,11.67
2018-03-23T14:18:47.746Z,10.90
2018-03-23T14:21:16.074Z,11.27
2018-03-23T14:23:44.442Z,10.30
2018-03-23T14:26:12.800Z,10.57
2018-03-23T14:28:41.198Z,9.90
2018-03-23T14:31:09.526Z,9.73
2018-03-23T14:33:37.955Z,10.00
2018-03-23T14:36:06.394Z,9.27
2018-03-23T14:38:34.725Z,10.53
2018-03-23T14:41:03.041Z,9.80
2018-03-23T14:43:31.366Z,9.73
2018-03-23T14:45:59.706Z,11.17
2018-03-23T14:48:28.061Z,10.27
2018-03-23T14:50:56.480Z,9.50
2018-03-23T14:53:24.912Z,9.03
2018-03-23T14:55:53.327Z,10.23
2018-03-23T14:58:21.725Z,8.03
2018-03-23T15:00:51.079Z,8.73
2018-03-23T15:03:19.449Z,9.37
2018-03-23T15:05:47.841Z,9.00
2018-03-23T15:08:18.833Z,10.80
2018-03-23T15:10:47.193Z,10.70
2018-03-23T15:13:15.660Z,10.60
2018-03-23T15:15:44.007Z,9.77
2018-03-23T15:18:12.383Z,9.77
2018-03-23T15:20:40.841Z,10.67
2018-03-23T15:23:09.183Z,9.73
2018-03-23T15:25:37.507Z,10.10
2018-03-23T15:28:05.895Z,9.83
2018-03-23T15:30:34.285Z,10.47
2018-03-23T15:33:02.639Z,10.07
2018-03-23T15:35:30.986Z,9.37
2018-03-23T15:37:59.381Z,10.57
2018-03-23T15:40:27.762Z,9.40
2018-03-23T15:42:56.090Z,10.57
2018-03-23T15:45:24.441Z,9.97
2018-03-23T15:47:52.806Z,11.37
2018-03-23T15:50:21.152Z,9.90
2018-03-23T15:52:49.536Z,10.40
2018-03-23T15:55:17.897Z,11.23
2018-03-23T15:57:46.275Z,10.53
2018-03-23T16:00:14.631Z,10.70
2018-03-23T16:02:42.962Z,10.80
2018-03-23T16:05:11.283Z,10.57
2018-03-23T16:07:39.641Z,10.70
2018-03-23T16:10:08.079Z,11.10
2018-03-23T16:12:36.398Z,10.73
2018-03-23T16:15:04.730Z,11.03
2018-03-23T16:17:33.080Z,9.70
2018-03-23T16:20:03.144Z,10.43
2018-03-23T16:22:32.747Z,10.53
2018-03-23T16:25:01.126Z,10.53
2018-03-23T16:27:29.446Z,11.33
2018-03-23T16:29:57.825Z,9.50
2018-03-23T16:32:26.154Z,9.83
2018-03-23T16:34:54.479Z,10.10
2018-03-23T16:37:22.822Z,10.80
2018-03-23T16:39:51.157Z,9.40
2018-03-23T16:42:19.465Z,9.87
2018-03-23T16:44:47.824Z,9.83
2018-03-23T16:47:16.156Z,8.83
2018-03-23T16:49:44.546Z,9.33
2018-03-23T16:52:12.840Z,9.57
2018-03-23T16:54:41.162Z,9.80
2018-03-23T16:57:09.570Z,9.43
2018-03-23T16:59:37.930Z,9.83
2018-03-23T17:02:06.252Z,10.80
2018-03-23T17:04:34.582Z,9.93
2018-03-23T17:07:02.906Z,11.63
2018-03-23T17:09:31.320Z,11.70
2018-03-23T17:11:59.712Z,12.20
2018-03-23T17:14:28.027Z,11.23
2018-03-23T17:16:56.357Z,12.43
2018-03-23T17:19:24.695Z,13.10
2018-03-23T17:21:53.040Z,12.57
2018-03-23T17:24:22.014Z,11.57
2018-03-23T17:26:50.440Z,12.43
2018-03-23T17:29:18.831Z,11.77
2018-03-23T17:31:47.233Z,10.83
2018-03-23T17:34:15.549Z,10.90
2018-03-23T17:36:43.884Z,11.03
2018-03-23T17:39:12.227Z,11.77
2018-03-23T17:41:40.634Z,12.10
2018-03-23T17:44:08.978Z,11.43
2018-03-23T17:46:37.316Z,11.77
2018-03-23T17:49:05.721Z,10.07
2018-03-23T17:51:34.066Z,12.17
2018-03-23T17:54:02.507Z,12.33
2018-03-23T17:56:30.883Z,11.60
2018-03-23T17:58:59.188Z,11.87
2018-03-23T18:01:27.515Z,11.50
2018-03-23T18:03:55.993Z,10.80
2018-03-23T18:06:24.331Z,12.00
2018-03-23T18:08:52.646Z,10.90
2018-03-23T18:11:21.028Z,11.73
2018-03-23T18:13:49.403Z,10.87
2018-03-23T18:16:17.822Z,13.20
2018-03-23T18:18:46.147Z,13.27
2018-03-23T18:21:14.597Z,14.00
2018-03-23T18:23:42.954Z,14.67
2018-03-23T18:26:11.281Z,16.33
2018-03-23T18:28:39.976Z,14.83
2018-03-23T18:31:10.305Z,16.50
2018-03-23T18:33:38.813Z,16.17
2018-03-23T18:36:07.204Z,15.10
2018-03-23T18:38:35.520Z,14.30
2018-03-23T18:41:03.832Z,13.53
2018-03-23T18:43:32.163Z,13.13
2018-03-23T18:46:00.554Z,13.30
2018-03-23T18:48:28.938Z,12.67
2018-03-23T18:50:57.288Z,14.30
2018-03-23T18:53:25.631Z,13.90
2018-03-23T18:55:53.969Z,12.53
2018-03-23T18:58:22.297Z,13.10
2018-03-23T19:00:50.605Z,13.80
2018-03-23T19:03:19.246Z,12.63
2018-03-23T19:05:47.774Z,13.10
2018-03-23T19:08:16.186Z,13.17
2018-03-23T19:10:44.568Z,11.60
2018-03-23T19:13:12.978Z,13.53
2018-03-23T19:15:41.447Z,13.20
2018-03-23T19:18:09.777Z,12.47
2018-03-23T19:20:38.080Z,12.73
2018-03-23T19:23:06.459Z,12.77
2018-03-23T19:25:34.893Z,12.33
2018-03-23T19:28:03.796Z,18.03
2018-03-23T19:30:41.787Z,17.57
2018-03-23T19:33:11.029Z,17.10
2018-03-23T19:35:42.008Z,17.70
2018-03-23T19:38:11.253Z,18.43
2018-03-23T19:40:40.814Z,22.50
2018-03-23T19:43:09.193Z,18.87
2018-03-23T19:45:37.735Z,18.20
2018-03-23T19:48:06.662Z,19.90
2018-03-23T19:50:35.055Z,23.60
2018-03-23T19:53:03.395Z,31.33
2018-03-23T19:55:31.748Z,34.13
2018-03-23T19:58:00.088Z,33.27
2018-03-23T20:00:28.442Z,31.37
2018-03-23T20:02:56.838Z,29.33
2018-03-23T20:05:25.167Z,28.63
2018-03-23T20:07:53.588Z,31.33
2018-03-23T20:10:21.949Z,28.93
2018-03-23T20:12:50.361Z,29.87
2018-03-23T20:15:18.743Z,29.13
2018-03-23T20:17:52.859Z,28.97
2018-03-23T20:20:26.678Z,29.63
2018-03-23T20:22:55.066Z,29.70
2018-03-23T20:25:23.426Z,30.40
2018-03-23T20:27:57.373Z,25.33
2018-03-23T20:30:25.780Z,23.37
2018-03-23T20:32:54.142Z,21.67
2018-03-23T20:35:22.528Z,23.40
2018-03-23T20:37:50.870Z,23.63
2018-03-23T20:40:19.246Z,22.10
2018-03-23T20:42:47.599Z,24.50
2018-03-23T20:45:15.930Z,23.93
2018-03-23T20:47:44.365Z,21.47
2018-03-23T20:50:12.704Z,22.80
2018-03-23T20:52:41.051Z,23.00
2018-03-23T20:55:09.822Z,22.30
2018-03-23T20:57:38.199Z,20.40
2018-03-23T21:00:06.946Z,18.37
2018-03-23T21:02:35.286Z,18.03
2018-03-23T21:05:03.703Z,19.07
2018-03-23T21:07:32.032Z,19.40
2018-03-23T21:10:00.341Z,19.40
2018-03-23T21:12:28.831Z,19.07
2018-03-23T21:14:57.977Z,19.80
2018-03-23T21:17:26.377Z,19.90
2018-03-23T21:19:54.765Z,18.67
2018-03-23T21:22:23.248Z,15.77
2018-03-23T21:24:51.706Z,15.30
2018-03-23T21:27:20.027Z,15.37
2018-03-23T21:29:48.352Z,16.87
2018-03-23T21:32:16.671Z,17.90
2018-03-23T21:34:44.996Z,18.57
2018-03-23T21:37:13.324Z,17.53
2018-03-23T21:39:41.672Z,17.30
2018-03-23T21:42:10.141Z,18.27
2018-03-23T21:44:38.556Z,17.43
2018-03-23T21:47:06.870Z,17.67
2018-03-23T21:49:35.217Z,18.00
2018-03-23T21:52:03.533Z,19.20
2018-03-23T21:54:31.862Z,18.27
2018-03-23T21:57:00.230Z,17.70
2018-03-23T21:59:28.568Z,18.37
2018-03-23T22:01:56.877Z,18.40
2018-03-23T22:04:25.700Z,19.07
2018-03-23T22:06:54.117Z,17.57
2018-03-23T22:09:22.458Z,17.90
2018-03-23T22:11:50.786Z,16.73
2018-03-23T22:14:19.153Z,18.70
2018-03-23T22:16:47.632Z,17.63
2018-03-23T22:19:15.995Z,18.43
2018-03-23T22:21:44.412Z,19.53
2018-03-23T22:24:12.805Z,18.20
2018-03-23T22:26:41.149Z,16.40
2018-03-23T22:29:09.489Z,16.47
2018-03-23T22:31:37.807Z,18.63
2018-03-23T22:34:06.168Z,18.17
2018-03-23T22:36:34.520Z,18.47
2018-03-23T22:39:02.834Z,19.27
2018-03-23T22:41:31.212Z,20.00
2018-03-23T22:43:59.563Z,17.57
2018-03-23T22:46:27.883Z,17.43
2018-03-23T22:48:56.220Z,18.43
2018-03-23T22:51:24.601Z,18.53
2018-03-23T22:53:52.946Z,19.33
2018-03-23T22:56:21.367Z,18.50
2018-03-23T22:58:49.739Z,18.50
2018-03-23T23:01:18.074Z,17.77
2018-03-23T23:03:46.412Z,20.50
2018-03-23T23:06:14.773Z,18.60
2018-03-23T23:08:43.113Z,19.33
2018-03-23T23:11:11.436Z,20.37
2018-03-23T23:13:39.743Z,19.07
2018-03-23T23:16:08.180Z,20.53
2018-03-23T23:18:36.501Z,18.90
2018-03-23T23:21:04.857Z,19.07
2018-03-23T23:23:33.194Z,19.90
2018-03-23T23:26:01.492Z,19.13
2018-03-23T23:28:29.838Z,19.70
2018-03-23T23:30:58.182Z,19.43
2018-03-23T23:33:26.529Z,18.10
2018-03-23T23:35:54.862Z,18.60
2018-03-23T23:38:23.202Z,18.53
2018-03-23T23:40:51.510Z,19.30
2018-03-23T23:43:19.860Z,18.27
2018-03-23T23:45:48.372Z,19.03
2018-03-23T23:48:16.773Z,19.27
2018-03-23T23:50:45.168Z,19.47
2018-03-23T23:53:13.570Z,20.03
2018-03-23T23:55:41.926Z,19.13
2018-03-23T23:58:10.591Z,18.63
